Boryslav — ENLB — position and weather

sailwx.info

Track history (hours):
 
Tides and Currents Weather Stations Pressure Air Temp Water Temp Dewpoint Dewpoint Depression Visibility Wind Speed Wind Dir Waves Ship Positions

Boryslav

Last reported at 2014-Aug-20 04:33 UTC. Time now 2014-Aug-20 08:53 UTC.
Position N 47°53' E 035°07'.

Length 86 m; draft 2.3 m.

Type: Ship (hazmat cat D). MMSI: 272088700.

Date/timePositionNaut miles runAvg speedWind from/ knotsBaromVisibWave heightAir tempDewpointWater temp
2014-Aug-20 04:33N 47°53' E 035°07'0 0.0
2014-Aug-20 03:33N 47°53' E 035°07'0 0.0
2014-Aug-20 02:33N 47°53' E 035°07'0 0.0
2014-Aug-20 01:33N 47°53' E 035°07'0 0.0
2014-Aug-20 00:33N 47°53' E 035°07'0 0.0
2014-Aug-19 23:33N 47°53' E 035°07'0 0.0
2014-Aug-19 22:33N 47°53' E 035°07'0 0.0
2014-Aug-19 21:33N 47°53' E 035°07'0 0.0
2014-Aug-19 20:33N 47°53' E 035°07'0 0.0
2014-Aug-19 19:33N 47°53' E 035°07'0 0.0
2014-Aug-19 18:33N 47°53' E 035°07'0 0.0
2014-Aug-19 17:33N 47°53' E 035°07'0 0.0
2014-Aug-19 16:33N 47°53' E 035°07'0 0.0
2014-Aug-19 15:33N 47°53' E 035°07'0 0.0
2014-Aug-19 14:33N 47°53' E 035°07'0 0.0
2014-Aug-19 13:33N 47°53' E 035°07'1 0.6
2014-Aug-19 12:33N 47°52' E 035°06'1 0.6
2014-Aug-19 11:33N 47°52' E 035°05'4 3.6
2014-Aug-19 10:33N 47°49' E 035°09'1 0.8
2014-Aug-19 09:33N 47°48' E 035°09'0 0.0
2014-Aug-19 08:33N 47°48' E 035°09'0 0.0
2014-Aug-19 07:33N 47°48' E 035°09'0 0.0
2014-Aug-19 06:33N 47°48' E 035°09'1 1.0
2014-Aug-19 05:33N 47°47' E 035°10'3 3.5
2014-Aug-19 04:33N 47°44' E 035°10'4 3.7
2014-Aug-19 03:33N 47°40' E 035°07'5 3.9
2014-Aug-19 02:20N 47°37' E 035°03'1 0.9
2014-Aug-19 01:30N 47°36' E 035°03'0 0.0
2014-Aug-18 23:28N 47°36' E 035°03'0 0.0
2014-Aug-18 22:33N 47°36' E 035°03'0 0.0
2014-Aug-18 21:32N 47°36' E 035°03'1 0.9
2014-Aug-18 20:30N 47°35' E 035°03'0 0.1
2014-Aug-18 18:05N 47°35' E 035°03'0 0.0
2014-Aug-18 17:33N 47°35' E 035°03'  
2014-Aug-15 05:31N 46°33' E 032°18'5 5.5
2014-Aug-15 04:33N 46°32' E 032°11'5 5.4
2014-Aug-15 03:33N 46°32' E 032°03'6 5.5
2014-Aug-15 02:32N 46°34' E 031°55'5 5.5
2014-Aug-15 01:33N 46°36' E 031°48'5 5.2
2014-Aug-15 00:33N 46°35' E 031°40'5 5.2
2014-Aug-14 23:33N 46°35' E 031°32'5 4.6
2014-Aug-14 22:33N 46°35' E 031°26'6 5.8
2014-Aug-14 21:33N 46°35' E 031°17'6 5.9
2014-Aug-14 20:33N 46°35' E 031°09'6 6.2
2014-Aug-14 19:33N 46°33' E 031°00'6 6.3
2014-Aug-14 18:33N 46°31' E 030°52'5 3.5
2014-Aug-14 17:10N 46°29' E 030°45'2 0.1
2014-Aug-13 17:33N 46°31' E 030°47'1 1.1
2014-Aug-13 16:33N 46°31' E 030°48'5 4.9
2014-Aug-13 15:33N 46°32' E 030°55'39 4.9
2014-Aug-13 07:33N 46°35' E 031°52'5 5.4
2014-Aug-13 06:33N 46°33' E 031°60'5 5.5
2014-Aug-13 05:33N 46°32' E 032°08'6 5.6
2014-Aug-13 04:33N 46°33' E 032°16'6 5.9
2014-Aug-13 03:33N 46°33' E 032°24'1 1.4
2014-Aug-13 02:33N 46°33' E 032°26'0 0.2
2014-Aug-13 01:33N 46°33' E 032°26'0 0.0
2014-Aug-13 00:29N 46°33' E 032°26'0 0.0
2014-Aug-12 23:33N 46°33' E 032°26'0 0.1
2014-Aug-12 22:33N 46°33' E 032°26'0 0.0
2014-Aug-12 21:33N 46°33' E 032°26'0 0.0
2014-Aug-12 20:33N 46°33' E 032°26'0 0.0
2014-Aug-12 19:33N 46°33' E 032°26'0 0.0
2014-Aug-12 17:30N 46°33' E 032°26'  
Track history (hours):
 
Tides and Currents Weather Stations Pressure Air Temp Water Temp Dewpoint Dewpoint Depression Visibility Wind Speed Wind Dir Waves Ship Positions

Boryslav

Last reported at 2014-Aug-20 04:33 UTC. Time now 2014-Aug-20 08:53 UTC.
Position N 47°53' E 035°07'.

Length 86 m; draft 2.3 m.

Type: Ship (hazmat cat D). MMSI: 272088700.

Date/timePositionNaut miles runAvg speedWind from/ knotsBaromVisibWave heightAir tempDewpointWater temp
2014-Aug-20 04:33N 47°53' E 035°07'0 0.0
2014-Aug-20 03:33N 47°53' E 035°07'0 0.0
2014-Aug-20 02:33N 47°53' E 035°07'0 0.0
2014-Aug-20 01:33N 47°53' E 035°07'0 0.0
2014-Aug-20 00:33N 47°53' E 035°07'0 0.0
2014-Aug-19 23:33N 47°53' E 035°07'0 0.0
2014-Aug-19 22:33N 47°53' E 035°07'0 0.0
2014-Aug-19 21:33N 47°53' E 035°07'0 0.0
2014-Aug-19 20:33N 47°53' E 035°07'0 0.0
2014-Aug-19 19:33N 47°53' E 035°07'0 0.0
2014-Aug-19 18:33N 47°53' E 035°07'0 0.0
2014-Aug-19 17:33N 47°53' E 035°07'0 0.0
2014-Aug-19 16:33N 47°53' E 035°07'0 0.0
2014-Aug-19 15:33N 47°53' E 035°07'0 0.0
2014-Aug-19 14:33N 47°53' E 035°07'0 0.0
2014-Aug-19 13:33N 47°53' E 035°07'1 0.6
2014-Aug-19 12:33N 47°52' E 035°06'1 0.6
2014-Aug-19 11:33N 47°52' E 035°05'4 3.6
2014-Aug-19 10:33N 47°49' E 035°09'1 0.8
2014-Aug-19 09:33N 47°48' E 035°09'0 0.0
2014-Aug-19 08:33N 47°48' E 035°09'0 0.0
2014-Aug-19 07:33N 47°48' E 035°09'0 0.0
2014-Aug-19 06:33N 47°48' E 035°09'1 1.0
2014-Aug-19 05:33N 47°47' E 035°10'3 3.5
2014-Aug-19 04:33N 47°44' E 035°10'4 3.7
2014-Aug-19 03:33N 47°40' E 035°07'5 3.9
2014-Aug-19 02:20N 47°37' E 035°03'1 0.9
2014-Aug-19 01:30N 47°36' E 035°03'0 0.0
2014-Aug-18 23:28N 47°36' E 035°03'0 0.0
2014-Aug-18 22:33N 47°36' E 035°03'0 0.0
2014-Aug-18 21:32N 47°36' E 035°03'1 0.9
2014-Aug-18 20:30N 47°35' E 035°03'0 0.1
2014-Aug-18 18:05N 47°35' E 035°03'0 0.0
2014-Aug-18 17:33N 47°35' E 035°03'  
2014-Aug-15 05:31N 46°33' E 032°18'5 5.5
2014-Aug-15 04:33N 46°32' E 032°11'5 5.4
2014-Aug-15 03:33N 46°32' E 032°03'6 5.5
2014-Aug-15 02:32N 46°34' E 031°55'5 5.5
2014-Aug-15 01:33N 46°36' E 031°48'5 5.2
2014-Aug-15 00:33N 46°35' E 031°40'5 5.2
2014-Aug-14 23:33N 46°35' E 031°32'5 4.6
2014-Aug-14 22:33N 46°35' E 031°26'6 5.8
2014-Aug-14 21:33N 46°35' E 031°17'6 5.9
2014-Aug-14 20:33N 46°35' E 031°09'6 6.2
2014-Aug-14 19:33N 46°33' E 031°00'6 6.3
2014-Aug-14 18:33N 46°31' E 030°52'5 3.5
2014-Aug-14 17:10N 46°29' E 030°45'2 0.1
2014-Aug-13 17:33N 46°31' E 030°47'1 1.1
2014-Aug-13 16:33N 46°31' E 030°48'5 4.9
2014-Aug-13 15:33N 46°32' E 030°55'39 4.9
2014-Aug-13 07:33N 46°35' E 031°52'5 5.4
2014-Aug-13 06:33N 46°33' E 031°60'5 5.5
2014-Aug-13 05:33N 46°32' E 032°08'6 5.6
2014-Aug-13 04:33N 46°33' E 032°16'6 5.9
2014-Aug-13 03:33N 46°33' E 032°24'1 1.4
2014-Aug-13 02:33N 46°33' E 032°26'0 0.2
2014-Aug-13 01:33N 46°33' E 032°26'0 0.0
2014-Aug-13 00:29N 46°33' E 032°26'0 0.0
2014-Aug-12 23:33N 46°33' E 032°26'0 0.1
2014-Aug-12 22:33N 46°33' E 032°26'0 0.0
2014-Aug-12 21:33N 46°33' E 032°26'0 0.0
2014-Aug-12 20:33N 46°33' E 032°26'0 0.0
2014-Aug-12 19:33N 46°33' E 032°26'0 0.0
2014-Aug-12 17:30N 46°33' E 032°26'  

Dump ship's entire track history